sensor_id;sensor_type;location;lat;lon;timestamp;temperature;humidity
65048;DHT22;52089;51.362;-2.384;2023-02-22T00:02:04;17.30;68.70
65048;DHT22;52089;51.362;-2.384;2023-02-22T00:05:58;17.30;68.90
65048;DHT22;52089;51.362;-2.384;2023-02-22T00:09:40;17.30;69.00
65048;DHT22;52089;51.362;-2.384;2023-02-22T00:13:22;17.30;69.00
65048;DHT22;52089;51.362;-2.384;2023-02-22T00:17:04;17.30;69.00
65048;DHT22;52089;51.362;-2.384;2023-02-22T00:20:46;17.40;69.10
65048;DHT22;52089;51.362;-2.384;2023-02-22T00:24:28;17.40;69.10
65048;DHT22;52089;51.362;-2.384;2023-02-22T00:28:10;17.40;69.10
65048;DHT22;52089;51.362;-2.384;2023-02-22T00:31:52;17.40;69.10
65048;DHT22;52089;51.362;-2.384;2023-02-22T00:35:34;17.40;69.10
65048;DHT22;52089;51.362;-2.384;2023-02-22T00:39:16;17.40;69.10
65048;DHT22;52089;51.362;-2.384;2023-02-22T00:43:00;17.40;69.10
65048;DHT22;52089;51.362;-2.384;2023-02-22T00:46:42;17.40;69.10
65048;DHT22;52089;51.362;-2.384;2023-02-22T00:50:26;17.40;69.00
65048;DHT22;52089;51.362;-2.384;2023-02-22T00:54:08;17.40;69.00
65048;DHT22;52089;51.362;-2.384;2023-02-22T00:57:51;17.40;69.00
65048;DHT22;52089;51.362;-2.384;2023-02-22T01:01:33;17.40;68.90
65048;DHT22;52089;51.362;-2.384;2023-02-22T01:05:17;17.40;68.90
65048;DHT22;52089;51.362;-2.384;2023-02-22T01:09:00;17.40;68.90
65048;DHT22;52089;51.362;-2.384;2023-02-22T01:12:42;17.40;68.90
65048;DHT22;52089;51.362;-2.384;2023-02-22T01:16:24;17.40;68.90
65048;DHT22;52089;51.362;-2.384;2023-02-22T01:20:08;17.40;68.90
65048;DHT22;52089;51.362;-2.384;2023-02-22T01:23:51;17.40;68.80
65048;DHT22;52089;51.362;-2.384;2023-02-22T01:27:34;17.40;68.90
65048;DHT22;52089;51.362;-2.384;2023-02-22T01:31:15;17.40;68.90
65048;DHT22;52089;51.362;-2.384;2023-02-22T01:34:58;17.40;68.80
65048;DHT22;52089;51.362;-2.384;2023-02-22T01:38:39;17.40;68.80
65048;DHT22;52089;51.362;-2.384;2023-02-22T01:42:21;17.40;68.80
65048;DHT22;52089;51.362;-2.384;2023-02-22T01:46:16;17.40;69.40
65048;DHT22;52089;51.362;-2.384;2023-02-22T01:49:59;17.40;68.80
65048;DHT22;52089;51.362;-2.384;2023-02-22T01:53:51;17.40;68.80
65048;DHT22;52089;51.362;-2.384;2023-02-22T01:57:35;17.40;68.80
65048;DHT22;52089;51.362;-2.384;2023-02-22T02:01:19;17.40;68.70
65048;DHT22;52089;51.362;-2.384;2023-02-22T02:05:03;17.40;68.70
65048;DHT22;52089;51.362;-2.384;2023-02-22T02:09:41;17.40;68.70
65048;DHT22;52089;51.362;-2.384;2023-02-22T02:12:57;17.40;68.70
65048;DHT22;52089;51.362;-2.384;2023-02-22T02:16:42;17.40;68.70
65048;DHT22;52089;51.362;-2.384;2023-02-22T02:37:32;17.40;68.70
65048;DHT22;52089;51.362;-2.384;2023-02-22T02:41:16;17.30;68.60
65048;DHT22;52089;51.362;-2.384;2023-02-22T02:45:22;17.30;68.50
65048;DHT22;52089;51.362;-2.384;2023-02-22T02:49:10;17.40;68.60
65048;DHT22;52089;51.362;-2.384;2023-02-22T02:52:55;17.30;68.50
65048;DHT22;52089;51.362;-2.384;2023-02-22T02:56:37;17.30;68.50
65048;DHT22;52089;51.362;-2.384;2023-02-22T03:00:23;17.30;68.60
65048;DHT22;52089;51.362;-2.384;2023-02-22T03:08:48;17.30;68.60
65048;DHT22;52089;51.362;-2.384;2023-02-22T03:20:40;17.30;68.60
65048;DHT22;52089;51.362;-2.384;2023-02-22T03:24:36;17.30;68.50
65048;DHT22;52089;51.362;-2.384;2023-02-22T03:28:24;17.30;68.60
65048;DHT22;52089;51.362;-2.384;2023-02-22T03:32:10;17.30;68.60
65048;DHT22;52089;51.362;-2.384;2023-02-22T03:35:58;17.30;68.60
65048;DHT22;52089;51.362;-2.384;2023-02-22T03:39:42;17.30;68.60
65048;DHT22;52089;51.362;-2.384;2023-02-22T03:43:33;17.30;68.50
65048;DHT22;52089;51.362;-2.384;2023-02-22T03:47:22;17.30;68.50
65048;DHT22;52089;51.362;-2.384;2023-02-22T03:51:11;17.30;68.50
65048;DHT22;52089;51.362;-2.384;2023-02-22T03:54:57;17.20;68.50
65048;DHT22;52089;51.362;-2.384;2023-02-22T03:58:41;17.20;68.50
65048;DHT22;52089;51.362;-2.384;2023-02-22T04:02:28;17.30;68.50
65048;DHT22;52089;51.362;-2.384;2023-02-22T04:06:11;17.20;68.50
65048;DHT22;52089;51.362;-2.384;2023-02-22T04:09:53;17.30;68.50
65048;DHT22;52089;51.362;-2.384;2023-02-22T04:13:35;17.20;68.50
65048;DHT22;52089;51.362;-2.384;2023-02-22T04:17:16;17.20;68.50
65048;DHT22;52089;51.362;-2.384;2023-02-22T04:20:58;17.20;68.50
65048;DHT22;52089;51.362;-2.384;2023-02-22T04:24:40;17.20;68.40
65048;DHT22;52089;51.362;-2.384;2023-02-22T04:28:22;17.20;68.40
65048;DHT22;52089;51.362;-2.384;2023-02-22T04:32:03;17.30;68.50
65048;DHT22;52089;51.362;-2.384;2023-02-22T04:35:45;17.20;68.40
65048;DHT22;52089;51.362;-2.384;2023-02-22T04:39:27;17.20;68.40
65048;DHT22;52089;51.362;-2.384;2023-02-22T04:43:09;17.20;68.40
65048;DHT22;52089;51.362;-2.384;2023-02-22T04:46:51;17.20;68.40
65048;DHT22;52089;51.362;-2.384;2023-02-22T04:50:33;17.20;68.40
65048;DHT22;52089;51.362;-2.384;2023-02-22T04:54:15;17.20;68.40
65048;DHT22;52089;51.362;-2.384;2023-02-22T04:57:58;17.20;68.40
65048;DHT22;52089;51.362;-2.384;2023-02-22T05:01:39;17.20;68.30
65048;DHT22;52089;51.362;-2.384;2023-02-22T05:05:21;17.20;68.30
65048;DHT22;52089;51.362;-2.384;2023-02-22T05:09:03;17.20;68.30
65048;DHT22;52089;51.362;-2.384;2023-02-22T05:12:45;17.20;68.30
65048;DHT22;52089;51.362;-2.384;2023-02-22T05:16:27;17.20;68.30
65048;DHT22;52089;51.362;-2.384;2023-02-22T05:20:25;17.20;68.30
65048;DHT22;52089;51.362;-2.384;2023-02-22T05:24:08;17.10;68.20
65048;DHT22;52089;51.362;-2.384;2023-02-22T05:27:51;17.10;68.30
65048;DHT22;52089;51.362;-2.384;2023-02-22T05:31:33;17.10;68.20
65048;DHT22;52089;51.362;-2.384;2023-02-22T05:35:16;17.20;68.30
65048;DHT22;52089;51.362;-2.384;2023-02-22T05:38:58;17.10;68.20
65048;DHT22;52089;51.362;-2.384;2023-02-22T05:42:40;17.10;68.20
65048;DHT22;52089;51.362;-2.384;2023-02-22T05:46:22;17.10;68.20
65048;DHT22;52089;51.362;-2.384;2023-02-22T05:50:04;17.20;68.30
65048;DHT22;52089;51.362;-2.384;2023-02-22T05:53:46;17.10;68.20
65048;DHT22;52089;51.362;-2.384;2023-02-22T05:57:28;17.10;68.20
65048;DHT22;52089;51.362;-2.384;2023-02-22T06:01:10;17.10;68.20
65048;DHT22;52089;51.362;-2.384;2023-02-22T06:04:52;17.10;68.20
65048;DHT22;52089;51.362;-2.384;2023-02-22T06:08:33;17.10;68.20
65048;DHT22;52089;51.362;-2.384;2023-02-22T06:12:15;17.10;68.30
65048;DHT22;52089;51.362;-2.384;2023-02-22T06:15:57;17.10;68.70
65048;DHT22;52089;51.362;-2.384;2023-02-22T06:19:39;17.10;68.20
65048;DHT22;52089;51.362;-2.384;2023-02-22T06:23:21;17.10;68.20
65048;DHT22;52089;51.362;-2.384;2023-02-22T06:27:03;17.10;68.20
65048;DHT22;52089;51.362;-2.384;2023-02-22T06:30:44;17.10;68.20
65048;DHT22;52089;51.362;-2.384;2023-02-22T06:34:26;17.10;68.20
65048;DHT22;52089;51.362;-2.384;2023-02-22T06:38:08;17.10;68.20
65048;DHT22;52089;51.362;-2.384;2023-02-22T06:41:50;17.10;68.20
65048;DHT22;52089;51.362;-2.384;2023-02-22T06:45:32;17.10;68.20
65048;DHT22;52089;51.362;-2.384;2023-02-22T06:49:14;17.00;68.70
65048;DHT22;52089;51.362;-2.384;2023-02-22T06:52:56;17.00;68.00
65048;DHT22;52089;51.362;-2.384;2023-02-22T06:56:38;17.00;68.00
65048;DHT22;52089;51.362;-2.384;2023-02-22T07:00:22;17.00;68.00
65048;DHT22;52089;51.362;-2.384;2023-02-22T07:04:05;17.00;68.10
65048;DHT22;52089;51.362;-2.384;2023-02-22T07:07:48;17.00;68.10
65048;DHT22;52089;51.362;-2.384;2023-02-22T07:11:31;17.00;68.00
65048;DHT22;52089;51.362;-2.384;2023-02-22T07:15:12;17.00;68.10
65048;DHT22;52089;51.362;-2.384;2023-02-22T07:18:54;17.00;68.00
65048;DHT22;52089;51.362;-2.384;2023-02-22T07:22:37;17.00;68.00
65048;DHT22;52089;51.362;-2.384;2023-02-22T07:26:19;17.00;68.10
65048;DHT22;52089;51.362;-2.384;2023-02-22T07:30:01;17.00;68.00
65048;DHT22;52089;51.362;-2.384;2023-02-22T07:33:45;17.00;68.00
65048;DHT22;52089;51.362;-2.384;2023-02-22T07:37:27;17.00;67.90
65048;DHT22;52089;51.362;-2.384;2023-02-22T07:41:09;17.00;67.90
65048;DHT22;52089;51.362;-2.384;2023-02-22T07:44:51;17.00;67.90
65048;DHT22;52089;51.362;-2.384;2023-02-22T07:48:33;17.00;68.50
65048;DHT22;52089;51.362;-2.384;2023-02-22T07:52:15;17.00;67.90
65048;DHT22;52089;51.362;-2.384;2023-02-22T07:56:02;17.00;68.40
65048;DHT22;52089;51.362;-2.384;2023-02-22T07:59:45;17.00;67.80
65048;DHT22;52089;51.362;-2.384;2023-02-22T08:03:31;16.90;67.80
65048;DHT22;52089;51.362;-2.384;2023-02-22T08:07:16;17.00;67.80
65048;DHT22;52089;51.362;-2.384;2023-02-22T08:10:58;17.00;67.80
65048;DHT22;52089;51.362;-2.384;2023-02-22T08:14:40;17.00;67.80
65048;DHT22;52089;51.362;-2.384;2023-02-22T08:18:23;17.00;67.80
65048;DHT22;52089;51.362;-2.384;2023-02-22T08:22:05;16.90;67.80
65048;DHT22;52089;51.362;-2.384;2023-02-22T08:25:47;17.00;68.00
65048;DHT22;52089;51.362;-2.384;2023-02-22T08:29:28;17.00;68.40
65048;DHT22;52089;51.362;-2.384;2023-02-22T08:33:15;16.90;68.50
65048;DHT22;52089;51.362;-2.384;2023-02-22T08:36:59;17.00;68.70
65048;DHT22;52089;51.362;-2.384;2023-02-22T08:40:41;17.00;68.70
65048;DHT22;52089;51.362;-2.384;2023-02-22T08:44:23;17.00;68.70
65048;DHT22;52089;51.362;-2.384;2023-02-22T08:48:05;17.00;68.70
65048;DHT22;52089;51.362;-2.384;2023-02-22T08:51:47;17.10;68.80
65048;DHT22;52089;51.362;-2.384;2023-02-22T08:55:31;17.10;68.90
65048;DHT22;52089;51.362;-2.384;2023-02-22T08:59:14;17.10;68.90
65048;DHT22;52089;51.362;-2.384;2023-02-22T09:02:56;17.10;68.80
65048;DHT22;52089;51.362;-2.384;2023-02-22T09:06:42;17.10;68.60
65048;DHT22;52089;51.362;-2.384;2023-02-22T09:10:27;17.10;69.30
65048;DHT22;52089;51.362;-2.384;2023-02-22T09:14:09;17.10;69.40
65048;DHT22;52089;51.362;-2.384;2023-02-22T09:17:52;17.10;69.30
65048;DHT22;52089;51.362;-2.384;2023-02-22T09:21:34;17.20;69.70
65048;DHT22;52089;51.362;-2.384;2023-02-22T09:25:16;17.20;69.40
65048;DHT22;52089;51.362;-2.384;2023-02-22T09:29:00;17.30;69.90
65048;DHT22;52089;51.362;-2.384;2023-02-22T09:32:42;17.30;70.00
65048;DHT22;52089;51.362;-2.384;2023-02-22T09:36:24;17.30;69.80
65048;DHT22;52089;51.362;-2.384;2023-02-22T09:40:07;17.40;69.80
65048;DHT22;52089;51.362;-2.384;2023-02-22T09:44:00;17.40;70.00
65048;DHT22;52089;51.362;-2.384;2023-02-22T09:47:58;17.40;70.30
65048;DHT22;52089;51.362;-2.384;2023-02-22T09:52:15;17.40;70.40
65048;DHT22;52089;51.362;-2.384;2023-02-22T09:56:10;17.50;70.00
65048;DHT22;52089;51.362;-2.384;2023-02-22T10:04:21;17.50;69.90
65048;DHT22;52089;51.362;-2.384;2023-02-22T10:08:12;17.50;69.90
65048;DHT22;52089;51.362;-2.384;2023-02-22T10:11:58;17.50;70.00
65048;DHT22;52089;51.362;-2.384;2023-02-22T10:23:56;17.60;70.60
65048;DHT22;52089;51.362;-2.384;2023-02-22T10:27:51;17.50;70.30
65048;DHT22;52089;51.362;-2.384;2023-02-22T10:31:42;17.50;70.20
65048;DHT22;52089;51.362;-2.384;2023-02-22T10:35:32;17.60;70.80
65048;DHT22;52089;51.362;-2.384;2023-02-22T10:39:30;17.60;70.60
65048;DHT22;52089;51.362;-2.384;2023-02-22T10:43:12;17.60;70.50
65048;DHT22;52089;51.362;-2.384;2023-02-22T10:46:54;17.50;70.50
65048;DHT22;52089;51.362;-2.384;2023-02-22T10:50:38;17.60;71.10
65048;DHT22;52089;51.362;-2.384;2023-02-22T10:54:29;17.50;70.50
65048;DHT22;52089;51.362;-2.384;2023-02-22T10:58:12;17.60;70.70
65048;DHT22;52089;51.362;-2.384;2023-02-22T11:01:53;17.50;70.50
65048;DHT22;52089;51.362;-2.384;2023-02-22T11:05:38;17.60;70.50
65048;DHT22;52089;51.362;-2.384;2023-02-22T11:09:20;17.60;70.60
65048;DHT22;52089;51.362;-2.384;2023-02-22T11:13:31;17.60;70.70
65048;DHT22;52089;51.362;-2.384;2023-02-22T11:17:27;17.50;70.70
65048;DHT22;52089;51.362;-2.384;2023-02-22T11:21:11;17.60;70.80
65048;DHT22;52089;51.362;-2.384;2023-02-22T11:24:57;17.60;70.70
65048;DHT22;52089;51.362;-2.384;2023-02-22T11:28:48;17.60;70.70
65048;DHT22;52089;51.362;-2.384;2023-02-22T11:32:30;17.50;70.70
65048;DHT22;52089;51.362;-2.384;2023-02-22T11:36:35;17.50;70.70
65048;DHT22;52089;51.362;-2.384;2023-02-22T11:40:21;17.50;70.70
65048;DHT22;52089;51.362;-2.384;2023-02-22T11:48:04;17.60;70.70
65048;DHT22;52089;51.362;-2.384;2023-02-22T11:51:57;17.60;70.70
65048;DHT22;52089;51.362;-2.384;2023-02-22T11:55:55;17.50;70.70
65048;DHT22;52089;51.362;-2.384;2023-02-22T12:00:13;17.60;70.80
65048;DHT22;52089;51.362;-2.384;2023-02-22T12:08:04;17.50;70.70
65048;DHT22;52089;51.362;-2.384;2023-02-22T12:12:17;17.60;70.70
65048;DHT22;52089;51.362;-2.384;2023-02-22T12:20:38;17.50;70.70
65048;DHT22;52089;51.362;-2.384;2023-02-22T12:24:27;17.50;70.70
65048;DHT22;52089;51.362;-2.384;2023-02-22T12:28:18;17.50;70.60
65048;DHT22;52089;51.362;-2.384;2023-02-22T12:32:18;17.60;70.60
65048;DHT22;52089;51.362;-2.384;2023-02-22T12:36:02;17.60;70.60
65048;DHT22;52089;51.362;-2.384;2023-02-22T12:40:04;17.50;70.60
65048;DHT22;52089;51.362;-2.384;2023-02-22T12:44:09;17.60;70.60
65048;DHT22;52089;51.362;-2.384;2023-02-22T12:48:08;17.60;70.60
65048;DHT22;52089;51.362;-2.384;2023-02-22T12:56:19;17.60;70.60
65048;DHT22;52089;51.362;-2.384;2023-02-22T13:00:15;17.60;70.60
65048;DHT22;52089;51.362;-2.384;2023-02-22T13:04:01;17.60;70.60
65048;DHT22;52089;51.362;-2.384;2023-02-22T13:08:25;17.60;70.60
65048;DHT22;52089;51.362;-2.384;2023-02-22T13:20:29;17.60;70.60
65048;DHT22;52089;51.362;-2.384;2023-02-22T13:35:59;17.60;70.50
65048;DHT22;52089;51.362;-2.384;2023-02-22T13:52:07;17.70;70.50
65048;DHT22;52089;51.362;-2.384;2023-02-22T13:55:55;17.60;70.50
65048;DHT22;52089;51.362;-2.384;2023-02-22T13:59:38;17.70;70.40
65048;DHT22;52089;51.362;-2.384;2023-02-22T14:15:15;17.70;70.40
65048;DHT22;52089;51.362;-2.384;2023-02-22T14:19:14;17.70;70.40
65048;DHT22;52089;51.362;-2.384;2023-02-22T14:27:09;17.70;70.40
65048;DHT22;52089;51.362;-2.384;2023-02-22T14:35:19;17.70;70.30
65048;DHT22;52089;51.362;-2.384;2023-02-22T14:39:36;17.70;70.30
65048;DHT22;52089;51.362;-2.384;2023-02-22T14:43:21;17.70;70.30
65048;DHT22;52089;51.362;-2.384;2023-02-22T14:47:06;17.70;70.50
65048;DHT22;52089;51.362;-2.384;2023-02-22T14:50:56;17.70;70.40
65048;DHT22;52089;51.362;-2.384;2023-02-22T15:02:52;17.70;70.40
65048;DHT22;52089;51.362;-2.384;2023-02-22T15:06:37;17.70;71.00
65048;DHT22;52089;51.362;-2.384;2023-02-22T15:10:30;17.70;70.40
65048;DHT22;52089;51.362;-2.384;2023-02-22T15:14:21;17.70;70.40
65048;DHT22;52089;51.362;-2.384;2023-02-22T15:18:18;17.80;70.40
65048;DHT22;52089;51.362;-2.384;2023-02-22T15:22:01;17.70;70.30
65048;DHT22;52089;51.362;-2.384;2023-02-22T15:25:47;17.70;70.30
65048;DHT22;52089;51.362;-2.384;2023-02-22T15:29:38;17.70;70.30
65048;DHT22;52089;51.362;-2.384;2023-02-22T15:33:28;17.70;70.20
65048;DHT22;52089;51.362;-2.384;2023-02-22T15:37:19;17.70;70.20
65048;DHT22;52089;51.362;-2.384;2023-02-22T15:41:06;17.80;70.20
65048;DHT22;52089;51.362;-2.384;2023-02-22T15:44:55;17.80;70.20
65048;DHT22;52089;51.362;-2.384;2023-02-22T15:48:37;17.70;70.10
65048;DHT22;52089;51.362;-2.384;2023-02-22T15:52:24;17.70;70.10
65048;DHT22;52089;51.362;-2.384;2023-02-22T15:56:11;17.70;70.10
65048;DHT22;52089;51.362;-2.384;2023-02-22T15:59:55;17.70;70.10
65048;DHT22;52089;51.362;-2.384;2023-02-22T16:07:30;17.70;70.10
65048;DHT22;52089;51.362;-2.384;2023-02-22T16:11:22;17.70;70.00
65048;DHT22;52089;51.362;-2.384;2023-02-22T16:15:15;17.70;70.00
65048;DHT22;52089;51.362;-2.384;2023-02-22T16:19:27;17.70;69.90
65048;DHT22;52089;51.362;-2.384;2023-02-22T16:23:23;17.70;69.90
65048;DHT22;52089;51.362;-2.384;2023-02-22T16:30:57;17.70;69.90
65048;DHT22;52089;51.362;-2.384;2023-02-22T16:34:39;17.70;69.90
65048;DHT22;52089;51.362;-2.384;2023-02-22T16:38:20;17.80;69.90
65048;DHT22;52089;51.362;-2.384;2023-02-22T16:42:03;17.70;69.70
65048;DHT22;52089;51.362;-2.384;2023-02-22T16:45:46;17.70;69.60
65048;DHT22;52089;51.362;-2.384;2023-02-22T16:49:28;17.70;69.60
65048;DHT22;52089;51.362;-2.384;2023-02-22T16:53:09;17.70;69.70
65048;DHT22;52089;51.362;-2.384;2023-02-22T16:56:53;17.70;69.70
65048;DHT22;52089;51.362;-2.384;2023-02-22T17:00:36;17.70;69.60
65048;DHT22;52089;51.362;-2.384;2023-02-22T17:04:23;17.70;69.60
65048;DHT22;52089;51.362;-2.384;2023-02-22T17:08:06;17.70;69.60
65048;DHT22;52089;51.362;-2.384;2023-02-22T17:11:49;17.70;69.60
65048;DHT22;52089;51.362;-2.384;2023-02-22T17:15:33;17.70;69.50
65048;DHT22;52089;51.362;-2.384;2023-02-22T17:19:20;17.70;69.50
65048;DHT22;52089;51.362;-2.384;2023-02-22T17:23:04;17.70;69.50
65048;DHT22;52089;51.362;-2.384;2023-02-22T17:26:47;17.70;69.40
65048;DHT22;52089;51.362;-2.384;2023-02-22T17:30:29;17.60;69.40
65048;DHT22;52089;51.362;-2.384;2023-02-22T17:34:13;17.70;69.40
65048;DHT22;52089;51.362;-2.384;2023-02-22T17:37:55;17.70;69.40
65048;DHT22;52089;51.362;-2.384;2023-02-22T17:41:38;17.60;69.30
65048;DHT22;52089;51.362;-2.384;2023-02-22T17:45:22;17.60;69.30
65048;DHT22;52089;51.362;-2.384;2023-02-22T17:49:04;17.60;69.30
65048;DHT22;52089;51.362;-2.384;2023-02-22T17:52:47;17.60;69.50
65048;DHT22;52089;51.362;-2.384;2023-02-22T17:56:32;17.60;69.60
65048;DHT22;52089;51.362;-2.384;2023-02-22T18:00:16;17.60;69.60
65048;DHT22;52089;51.362;-2.384;2023-02-22T18:04:04;17.60;69.60
65048;DHT22;52089;51.362;-2.384;2023-02-22T18:07:46;17.60;69.60
65048;DHT22;52089;51.362;-2.384;2023-02-22T18:11:28;17.60;69.50
65048;DHT22;52089;51.362;-2.384;2023-02-22T18:15:13;17.60;69.40
65048;DHT22;52089;51.362;-2.384;2023-02-22T18:18:58;17.60;69.40
65048;DHT22;52089;51.362;-2.384;2023-02-22T18:22:42;17.60;70.00
65048;DHT22;52089;51.362;-2.384;2023-02-22T18:26:25;17.70;69.40
65048;DHT22;52089;51.362;-2.384;2023-02-22T18:30:08;17.70;69.40
65048;DHT22;52089;51.362;-2.384;2023-02-22T18:33:51;17.60;69.20
65048;DHT22;52089;51.362;-2.384;2023-02-22T18:37:33;17.70;69.20
65048;DHT22;52089;51.362;-2.384;2023-02-22T18:41:17;17.70;69.20
65048;DHT22;52089;51.362;-2.384;2023-02-22T18:44:59;17.60;69.10
65048;DHT22;52089;51.362;-2.384;2023-02-22T18:48:45;17.60;69.10
65048;DHT22;52089;51.362;-2.384;2023-02-22T18:52:27;17.60;69.10
65048;DHT22;52089;51.362;-2.384;2023-02-22T18:56:13;17.60;69.00
65048;DHT22;52089;51.362;-2.384;2023-02-22T18:59:56;17.60;69.00
65048;DHT22;52089;51.362;-2.384;2023-02-22T19:03:37;17.60;69.00
65048;DHT22;52089;51.362;-2.384;2023-02-22T19:07:19;17.60;69.00
65048;DHT22;52089;51.362;-2.384;2023-02-22T19:11:05;17.60;68.90
65048;DHT22;52089;51.362;-2.384;2023-02-22T19:14:49;17.60;68.90
65048;DHT22;52089;51.362;-2.384;2023-02-22T19:18:30;17.60;68.80
65048;DHT22;52089;51.362;-2.384;2023-02-22T19:22:13;17.60;68.80
65048;DHT22;52089;51.362;-2.384;2023-02-22T19:25:55;17.60;68.80
65048;DHT22;52089;51.362;-2.384;2023-02-22T19:29:37;17.60;68.80
65048;DHT22;52089;51.362;-2.384;2023-02-22T19:33:20;17.60;68.80
65048;DHT22;52089;51.362;-2.384;2023-02-22T19:37:06;17.60;68.70
65048;DHT22;52089;51.362;-2.384;2023-02-22T19:40:48;17.60;68.70
65048;DHT22;52089;51.362;-2.384;2023-02-22T19:44:30;17.60;68.70
65048;DHT22;52089;51.362;-2.384;2023-02-22T19:48:13;17.60;68.70
65048;DHT22;52089;51.362;-2.384;2023-02-22T19:51:55;17.60;68.70
65048;DHT22;52089;51.362;-2.384;2023-02-22T19:55:38;17.60;68.80
65048;DHT22;52089;51.362;-2.384;2023-02-22T19:59:20;17.60;68.80
65048;DHT22;52089;51.362;-2.384;2023-02-22T20:03:03;17.50;68.70
65048;DHT22;52089;51.362;-2.384;2023-02-22T20:06:51;17.60;68.70
65048;DHT22;52089;51.362;-2.384;2023-02-22T20:10:39;17.50;69.30
65048;DHT22;52089;51.362;-2.384;2023-02-22T20:14:24;17.60;68.70
65048;DHT22;52089;51.362;-2.384;2023-02-22T20:18:06;17.60;68.70
65048;DHT22;52089;51.362;-2.384;2023-02-22T20:21:48;17.50;68.60
65048;DHT22;52089;51.362;-2.384;2023-02-22T20:25:30;17.60;68.60
65048;DHT22;52089;51.362;-2.384;2023-02-22T20:29:13;17.60;68.60
65048;DHT22;52089;51.362;-2.384;2023-02-22T20:32:55;17.60;68.60
65048;DHT22;52089;51.362;-2.384;2023-02-22T20:36:38;17.60;68.60
65048;DHT22;52089;51.362;-2.384;2023-02-22T20:40:20;17.60;68.50
65048;DHT22;52089;51.362;-2.384;2023-02-22T20:44:02;17.60;68.50
65048;DHT22;52089;51.362;-2.384;2023-02-22T20:47:47;17.60;68.50
65048;DHT22;52089;51.362;-2.384;2023-02-22T20:51:29;17.60;68.60
65048;DHT22;52089;51.362;-2.384;2023-02-22T20:55:11;17.60;68.70
65048;DHT22;52089;51.362;-2.384;2023-02-22T20:59:01;17.50;68.70
65048;DHT22;52089;51.362;-2.384;2023-02-22T21:02:44;17.60;68.80
65048;DHT22;52089;51.362;-2.384;2023-02-22T21:06:29;17.50;68.70
65048;DHT22;52089;51.362;-2.384;2023-02-22T21:10:11;17.60;68.80
65048;DHT22;52089;51.362;-2.384;2023-02-22T21:13:53;17.60;68.80
65048;DHT22;52089;51.362;-2.384;2023-02-22T21:17:35;17.60;69.10
65048;DHT22;52089;51.362;-2.384;2023-02-22T21:21:17;17.60;68.70
65048;DHT22;52089;51.362;-2.384;2023-02-22T21:24:59;17.60;68.70
65048;DHT22;52089;51.362;-2.384;2023-02-22T21:28:41;17.60;68.70
65048;DHT22;52089;51.362;-2.384;2023-02-22T21:32:32;17.60;68.70
65048;DHT22;52089;51.362;-2.384;2023-02-22T21:36:13;17.60;68.70
65048;DHT22;52089;51.362;-2.384;2023-02-22T21:39:56;17.60;68.50
65048;DHT22;52089;51.362;-2.384;2023-02-22T21:43:39;17.60;69.20
65048;DHT22;52089;51.362;-2.384;2023-02-22T21:47:22;17.60;68.50
65048;DHT22;52089;51.362;-2.384;2023-02-22T21:51:12;17.60;68.40
65048;DHT22;52089;51.362;-2.384;2023-02-22T21:54:54;17.70;68.40
65048;DHT22;52089;51.362;-2.384;2023-02-22T21:58:36;17.60;68.60
65048;DHT22;52089;51.362;-2.384;2023-02-22T22:02:17;17.60;68.30
65048;DHT22;52089;51.362;-2.384;2023-02-22T22:06:07;17.60;68.30
65048;DHT22;52089;51.362;-2.384;2023-02-22T22:09:50;17.60;68.20
65048;DHT22;52089;51.362;-2.384;2023-02-22T22:13:38;17.60;68.20
65048;DHT22;52089;51.362;-2.384;2023-02-22T22:17:20;17.60;68.70
65048;DHT22;52089;51.362;-2.384;2023-02-22T22:21:20;17.60;68.10
65048;DHT22;52089;51.362;-2.384;2023-02-22T22:25:03;17.60;68.00
65048;DHT22;52089;51.362;-2.384;2023-02-22T22:28:48;17.60;68.00
65048;DHT22;52089;51.362;-2.384;2023-02-22T22:32:31;17.50;67.90
65048;DHT22;52089;51.362;-2.384;2023-02-22T22:36:14;17.60;67.90
65048;DHT22;52089;51.362;-2.384;2023-02-22T22:39:57;17.60;67.90
65048;DHT22;52089;51.362;-2.384;2023-02-22T22:43:40;17.60;67.90
65048;DHT22;52089;51.362;-2.384;2023-02-22T22:47:22;17.60;67.80
65048;DHT22;52089;51.362;-2.384;2023-02-22T22:51:07;17.60;67.80
65048;DHT22;52089;51.362;-2.384;2023-02-22T22:54:50;17.60;67.80
65048;DHT22;52089;51.362;-2.384;2023-02-22T22:58:32;17.50;67.70
65048;DHT22;52089;51.362;-2.384;2023-02-22T23:02:17;17.50;67.70
65048;DHT22;52089;51.362;-2.384;2023-02-22T23:06:04;17.50;67.60
65048;DHT22;52089;51.362;-2.384;2023-02-22T23:09:46;17.50;67.60
65048;DHT22;52089;51.362;-2.384;2023-02-22T23:13:28;17.50;67.60
65048;DHT22;52089;51.362;-2.384;2023-02-22T23:17:12;17.50;67.50
65048;DHT22;52089;51.362;-2.384;2023-02-22T23:20:59;17.40;67.50
65048;DHT22;52089;51.362;-2.384;2023-02-22T23:24:41;17.50;67.50
65048;DHT22;52089;51.362;-2.384;2023-02-22T23:28:24;17.50;67.50
65048;DHT22;52089;51.362;-2.384;2023-02-22T23:32:07;17.40;68.00
65048;DHT22;52089;51.362;-2.384;2023-02-22T23:35:49;17.50;67.40
65048;DHT22;52089;51.362;-2.384;2023-02-22T23:39:31;17.40;67.40
65048;DHT22;52089;51.362;-2.384;2023-02-22T23:43:13;17.40;67.90
65048;DHT22;52089;51.362;-2.384;2023-02-22T23:46:57;17.40;67.30
65048;DHT22;52089;51.362;-2.384;2023-02-22T23:50:39;17.40;67.30
65048;DHT22;52089;51.362;-2.384;2023-02-22T23:54:21;17.40;67.30
65048;DHT22;52089;51.362;-2.384;2023-02-22T23:58:05;17.40;67.30
